sensor_id;sensor_type;location;lat;lon;timestamp;P1;durP1;ratioP1;P2;durP2;ratioP2
66487;SDS011;53304;54.550;18.526;2023-12-22T00:02:15;4.57;;;1.35;;
66487;SDS011;53304;54.550;18.526;2023-12-22T00:04:41;4.40;;;1.67;;
66487;SDS011;53304;54.550;18.526;2023-12-22T00:07:06;5.72;;;1.50;;
66487;SDS011;53304;54.550;18.526;2023-12-22T00:09:36;4.72;;;1.52;;
66487;SDS011;53304;54.550;18.526;2023-12-22T00:12:04;5.45;;;1.73;;
66487;SDS011;53304;54.550;18.526;2023-12-22T00:14:32;4.80;;;1.50;;
66487;SDS011;53304;54.550;18.526;2023-12-22T00:16:57;4.85;;;1.50;;
66487;SDS011;53304;54.550;18.526;2023-12-22T00:19:26;6.07;;;1.65;;
66487;SDS011;53304;54.550;18.526;2023-12-22T00:21:51;6.05;;;1.48;;
66487;SDS011;53304;54.550;18.526;2023-12-22T00:24:19;3.25;;;1.13;;
66487;SDS011;53304;54.550;18.526;2023-12-22T00:26:46;4.20;;;1.20;;
66487;SDS011;53304;54.550;18.526;2023-12-22T00:29:14;5.35;;;1.40;;
66487;SDS011;53304;54.550;18.526;2023-12-22T00:31:42;3.05;;;1.27;;
66487;SDS011;53304;54.550;18.526;2023-12-22T00:34:10;4.53;;;1.20;;
66487;SDS011;53304;54.550;18.526;2023-12-22T00:36:35;4.18;;;1.35;;
66487;SDS011;53304;54.550;18.526;2023-12-22T00:39:00;4.25;;;1.42;;
66487;SDS011;53304;54.550;18.526;2023-12-22T00:41:26;3.42;;;1.20;;
66487;SDS011;53304;54.550;18.526;2023-12-22T00:43:54;3.83;;;1.33;;
66487;SDS011;53304;54.550;18.526;2023-12-22T00:46:19;3.45;;;1.05;;
66487;SDS011;53304;54.550;18.526;2023-12-22T00:48:45;3.58;;;1.48;;
66487;SDS011;53304;54.550;18.526;2023-12-22T00:51:13;5.97;;;1.20;;
66487;SDS011;53304;54.550;18.526;2023-12-22T00:53:38;4.38;;;1.30;;
66487;SDS011;53304;54.550;18.526;2023-12-22T00:56:04;2.90;;;1.25;;
66487;SDS011;53304;54.550;18.526;2023-12-22T00:58:31;3.50;;;1.45;;
66487;SDS011;53304;54.550;18.526;2023-12-22T01:00:56;2.65;;;0.90;;
66487;SDS011;53304;54.550;18.526;2023-12-22T01:03:24;4.57;;;1.38;;
66487;SDS011;53304;54.550;18.526;2023-12-22T01:05:49;2.47;;;1.05;;
66487;SDS011;53304;54.550;18.526;2023-12-22T01:08:17;3.13;;;1.08;;
66487;SDS011;53304;54.550;18.526;2023-12-22T01:10:42;2.65;;;1.27;;
66487;SDS011;53304;54.550;18.526;2023-12-22T01:13:10;2.15;;;0.98;;
66487;SDS011;53304;54.550;18.526;2023-12-22T01:15:35;3.50;;;0.90;;
66487;SDS011;53304;54.550;18.526;2023-12-22T01:18:00;4.70;;;1.40;;
66487;SDS011;53304;54.550;18.526;2023-12-22T01:20:28;3.90;;;1.40;;
66487;SDS011;53304;54.550;18.526;2023-12-22T01:22:58;3.97;;;1.10;;
66487;SDS011;53304;54.550;18.526;2023-12-22T01:25:24;3.35;;;1.10;;
66487;SDS011;53304;54.550;18.526;2023-12-22T01:27:54;2.00;;;1.02;;
66487;SDS011;53304;54.550;18.526;2023-12-22T01:30:22;2.38;;;1.05;;
66487;SDS011;53304;54.550;18.526;2023-12-22T01:32:47;2.65;;;0.90;;
66487;SDS011;53304;54.550;18.526;2023-12-22T01:35:12;2.22;;;1.00;;
66487;SDS011;53304;54.550;18.526;2023-12-22T01:37:40;4.35;;;1.08;;
66487;SDS011;53304;54.550;18.526;2023-12-22T01:40:11;2.30;;;0.80;;
66487;SDS011;53304;54.550;18.526;2023-12-22T01:42:37;5.20;;;1.10;;
66487;SDS011;53304;54.550;18.526;2023-12-22T01:45:05;4.07;;;0.98;;
66487;SDS011;53304;54.550;18.526;2023-12-22T01:47:31;3.35;;;1.02;;
66487;SDS011;53304;54.550;18.526;2023-12-22T01:49:57;2.47;;;1.00;;
66487;SDS011;53304;54.550;18.526;2023-12-22T01:52:25;4.15;;;0.90;;
66487;SDS011;53304;54.550;18.526;2023-12-22T01:54:50;4.05;;;0.95;;
66487;SDS011;53304;54.550;18.526;2023-12-22T01:57:22;2.55;;;1.10;;
66487;SDS011;53304;54.550;18.526;2023-12-22T01:59:48;2.25;;;0.95;;
66487;SDS011;53304;54.550;18.526;2023-12-22T02:02:16;4.43;;;1.10;;
66487;SDS011;53304;54.550;18.526;2023-12-22T02:04:41;2.22;;;0.80;;
66487;SDS011;53304;54.550;18.526;2023-12-22T02:07:10;3.97;;;0.88;;
66487;SDS011;53304;54.550;18.526;2023-12-22T02:09:38;1.20;;;0.70;;
66487;SDS011;53304;54.550;18.526;2023-12-22T02:12:08;2.80;;;0.80;;
66487;SDS011;53304;54.550;18.526;2023-12-22T02:14:39;2.33;;;1.00;;
66487;SDS011;53304;54.550;18.526;2023-12-22T02:17:08;3.10;;;0.90;;
66487;SDS011;53304;54.550;18.526;2023-12-22T02:22:05;1.55;;;0.70;;
66487;SDS011;53304;54.550;18.526;2023-12-22T02:24:31;1.83;;;0.80;;
66487;SDS011;53304;54.550;18.526;2023-12-22T02:29:30;4.45;;;1.48;;
66487;SDS011;53304;54.550;18.526;2023-12-22T02:31:59;1.85;;;0.82;;
66487;SDS011;53304;54.550;18.526;2023-12-22T02:34:32;2.00;;;0.98;;
66487;SDS011;53304;54.550;18.526;2023-12-22T02:37:00;1.65;;;0.90;;
66487;SDS011;53304;54.550;18.526;2023-12-22T02:39:31;2.42;;;0.95;;
66487;SDS011;53304;54.550;18.526;2023-12-22T02:41:57;3.90;;;0.85;;
66487;SDS011;53304;54.550;18.526;2023-12-22T02:44:25;1.50;;;0.82;;
66487;SDS011;53304;54.550;18.526;2023-12-22T02:46:55;1.48;;;0.52;;
66487;SDS011;53304;54.550;18.526;2023-12-22T02:49:21;1.20;;;0.80;;
66487;SDS011;53304;54.550;18.526;2023-12-22T02:51:46;4.72;;;1.17;;
66487;SDS011;53304;54.550;18.526;2023-12-22T02:54:14;2.55;;;0.90;;
66487;SDS011;53304;54.550;18.526;2023-12-22T02:56:39;2.00;;;0.82;;
66487;SDS011;53304;54.550;18.526;2023-12-22T02:59:07;1.50;;;0.75;;
66487;SDS011;53304;54.550;18.526;2023-12-22T03:01:35;2.08;;;0.68;;
66487;SDS011;53304;54.550;18.526;2023-12-22T03:04:01;1.60;;;0.70;;
66487;SDS011;53304;54.550;18.526;2023-12-22T03:06:26;2.33;;;0.77;;
66487;SDS011;53304;54.550;18.526;2023-12-22T03:08:51;2.13;;;0.70;;
66487;SDS011;53304;54.550;18.526;2023-12-22T03:11:17;1.40;;;0.68;;
66487;SDS011;53304;54.550;18.526;2023-12-22T03:13:42;1.15;;;0.50;;
66487;SDS011;53304;54.550;18.526;2023-12-22T03:16:12;2.70;;;1.10;;
66487;SDS011;53304;54.550;18.526;2023-12-22T03:18:38;2.05;;;0.70;;
66487;SDS011;53304;54.550;18.526;2023-12-22T03:21:06;1.25;;;0.80;;
66487;SDS011;53304;54.550;18.526;2023-12-22T03:23:31;2.10;;;0.70;;
66487;SDS011;53304;54.550;18.526;2023-12-22T03:25:56;1.52;;;0.60;;
66487;SDS011;53304;54.550;18.526;2023-12-22T03:28:24;1.73;;;0.73;;
66487;SDS011;53304;54.550;18.526;2023-12-22T03:30:49;1.70;;;0.57;;
66487;SDS011;53304;54.550;18.526;2023-12-22T03:33:17;2.22;;;0.80;;
66487;SDS011;53304;54.550;18.526;2023-12-22T03:35:45;1.88;;;0.50;;
66487;SDS011;53304;54.550;18.526;2023-12-22T03:38:10;2.45;;;0.90;;
66487;SDS011;53304;54.550;18.526;2023-12-22T03:40:38;4.43;;;1.05;;
66487;SDS011;53304;54.550;18.526;2023-12-22T03:43:03;1.00;;;0.68;;
66487;SDS011;53304;54.550;18.526;2023-12-22T03:45:34;1.38;;;0.70;;
66487;SDS011;53304;54.550;18.526;2023-12-22T03:47:59;1.63;;;0.80;;
66487;SDS011;53304;54.550;18.526;2023-12-22T03:50:24;1.33;;;0.75;;
66487;SDS011;53304;54.550;18.526;2023-12-22T03:52:52;3.65;;;0.90;;
66487;SDS011;53304;54.550;18.526;2023-12-22T03:55:17;1.50;;;0.65;;
66487;SDS011;53304;54.550;18.526;2023-12-22T03:57:43;1.25;;;0.60;;
66487;SDS011;53304;54.550;18.526;2023-12-22T04:00:10;3.47;;;0.80;;
66487;SDS011;53304;54.550;18.526;2023-12-22T04:02:36;2.30;;;0.75;;
66487;SDS011;53304;54.550;18.526;2023-12-22T04:05:02;1.77;;;0.80;;
66487;SDS011;53304;54.550;18.526;2023-12-22T04:07:29;1.67;;;0.70;;
66487;SDS011;53304;54.550;18.526;2023-12-22T04:09:57;2.95;;;0.80;;
66487;SDS011;53304;54.550;18.526;2023-12-22T04:12:25;1.23;;;0.68;;
66487;SDS011;53304;54.550;18.526;2023-12-22T04:14:53;1.20;;;0.80;;
66487;SDS011;53304;54.550;18.526;2023-12-22T04:17:20;2.33;;;0.90;;
66487;SDS011;53304;54.550;18.526;2023-12-22T04:19:46;1.52;;;0.80;;
66487;SDS011;53304;54.550;18.526;2023-12-22T04:22:13;2.75;;;0.80;;
66487;SDS011;53304;54.550;18.526;2023-12-22T04:24:39;3.10;;;0.90;;
66487;SDS011;53304;54.550;18.526;2023-12-22T04:27:09;1.23;;;0.77;;
66487;SDS011;53304;54.550;18.526;2023-12-22T04:29:34;2.30;;;0.85;;
66487;SDS011;53304;54.550;18.526;2023-12-22T04:32:02;1.35;;;0.80;;
66487;SDS011;53304;54.550;18.526;2023-12-22T04:34:30;1.90;;;0.77;;
66487;SDS011;53304;54.550;18.526;2023-12-22T04:36:58;2.35;;;0.90;;
66487;SDS011;53304;54.550;18.526;2023-12-22T04:39:26;1.20;;;0.73;;
66487;SDS011;53304;54.550;18.526;2023-12-22T04:41:54;1.17;;;0.70;;
66487;SDS011;53304;54.550;18.526;2023-12-22T04:44:19;0.50;;;0.50;;
66487;SDS011;53304;54.550;18.526;2023-12-22T04:46:44;3.72;;;0.80;;
66487;SDS011;53304;54.550;18.526;2023-12-22T04:49:14;2.25;;;0.80;;
66487;SDS011;53304;54.550;18.526;2023-12-22T04:51:43;1.40;;;0.70;;
66487;SDS011;53304;54.550;18.526;2023-12-22T04:54:11;2.33;;;0.98;;
66487;SDS011;53304;54.550;18.526;2023-12-22T04:56:41;2.40;;;0.98;;
66487;SDS011;53304;54.550;18.526;2023-12-22T04:59:08;2.22;;;0.80;;
66487;SDS011;53304;54.550;18.526;2023-12-22T05:01:36;1.73;;;0.85;;
66487;SDS011;53304;54.550;18.526;2023-12-22T05:04:06;1.80;;;0.70;;
66487;SDS011;53304;54.550;18.526;2023-12-22T05:06:32;1.60;;;0.80;;
66487;SDS011;53304;54.550;18.526;2023-12-22T05:08:57;1.10;;;0.60;;
66487;SDS011;53304;54.550;18.526;2023-12-22T05:11:25;2.30;;;0.63;;
66487;SDS011;53304;54.550;18.526;2023-12-22T05:13:53;1.73;;;0.80;;
66487;SDS011;53304;54.550;18.526;2023-12-22T05:16:21;3.47;;;0.80;;
66487;SDS011;53304;54.550;18.526;2023-12-22T05:18:48;2.25;;;0.90;;
66487;SDS011;53304;54.550;18.526;2023-12-22T05:21:14;2.97;;;0.90;;
66487;SDS011;53304;54.550;18.526;2023-12-22T05:23:39;1.90;;;0.80;;
66487;SDS011;53304;54.550;18.526;2023-12-22T05:26:05;1.98;;;0.82;;
66487;SDS011;53304;54.550;18.526;2023-12-22T05:28:35;1.15;;;0.60;;
66487;SDS011;53304;54.550;18.526;2023-12-22T05:31:03;0.98;;;0.70;;
66487;SDS011;53304;54.550;18.526;2023-12-22T05:33:31;1.48;;;0.73;;
66487;SDS011;53304;54.550;18.526;2023-12-22T05:35:56;2.28;;;0.88;;
66487;SDS011;53304;54.550;18.526;2023-12-22T05:38:22;3.08;;;1.05;;
66487;SDS011;53304;54.550;18.526;2023-12-22T05:40:47;2.95;;;0.80;;
66487;SDS011;53304;54.550;18.526;2023-12-22T05:43:16;3.20;;;1.08;;
66487;SDS011;53304;54.550;18.526;2023-12-22T05:45:42;1.85;;;0.70;;
66487;SDS011;53304;54.550;18.526;2023-12-22T05:48:10;1.40;;;0.70;;
66487;SDS011;53304;54.550;18.526;2023-12-22T05:50:37;2.08;;;0.90;;
66487;SDS011;53304;54.550;18.526;2023-12-22T05:53:03;3.08;;;0.90;;
66487;SDS011;53304;54.550;18.526;2023-12-22T05:55:30;2.22;;;0.90;;
66487;SDS011;53304;54.550;18.526;2023-12-22T05:57:58;2.35;;;0.80;;
66487;SDS011;53304;54.550;18.526;2023-12-22T06:00:23;1.60;;;0.77;;
66487;SDS011;53304;54.550;18.526;2023-12-22T06:02:51;1.85;;;1.10;;
66487;SDS011;53304;54.550;18.526;2023-12-22T06:05:16;1.80;;;1.17;;
66487;SDS011;53304;54.550;18.526;2023-12-22T06:07:47;1.33;;;0.75;;
66487;SDS011;53304;54.550;18.526;2023-12-22T06:10:12;1.95;;;0.85;;
66487;SDS011;53304;54.550;18.526;2023-12-22T06:12:38;1.70;;;0.75;;
66487;SDS011;53304;54.550;18.526;2023-12-22T06:15:05;2.72;;;1.00;;
66487;SDS011;53304;54.550;18.526;2023-12-22T06:17:34;1.27;;;0.80;;
66487;SDS011;53304;54.550;18.526;2023-12-22T06:20:01;4.30;;;1.20;;
66487;SDS011;53304;54.550;18.526;2023-12-22T06:22:29;3.40;;;1.20;;
66487;SDS011;53304;54.550;18.526;2023-12-22T06:24:59;2.88;;;0.98;;
66487;SDS011;53304;54.550;18.526;2023-12-22T06:27:26;1.80;;;0.70;;
66487;SDS011;53304;54.550;18.526;2023-12-22T06:29:53;1.73;;;0.82;;
66487;SDS011;53304;54.550;18.526;2023-12-22T06:32:21;3.60;;;1.25;;
66487;SDS011;53304;54.550;18.526;2023-12-22T06:34:46;3.47;;;1.20;;
66487;SDS011;53304;54.550;18.526;2023-12-22T06:37:12;4.20;;;1.20;;
66487;SDS011;53304;54.550;18.526;2023-12-22T06:39:38;2.67;;;0.93;;
66487;SDS011;53304;54.550;18.526;2023-12-22T06:42:03;4.10;;;1.02;;
66487;SDS011;53304;54.550;18.526;2023-12-22T06:44:31;7.80;;;1.35;;
66487;SDS011;53304;54.550;18.526;2023-12-22T06:46:56;3.20;;;1.10;;
66487;SDS011;53304;54.550;18.526;2023-12-22T06:49:22;3.75;;;1.15;;
66487;SDS011;53304;54.550;18.526;2023-12-22T06:51:50;4.13;;;1.30;;
66487;SDS011;53304;54.550;18.526;2023-12-22T06:54:15;5.10;;;1.52;;
66487;SDS011;53304;54.550;18.526;2023-12-22T06:56:41;8.43;;;1.58;;
66487;SDS011;53304;54.550;18.526;2023-12-22T06:59:08;9.57;;;1.80;;
66487;SDS011;53304;54.550;18.526;2023-12-22T07:01:37;6.00;;;1.63;;
66487;SDS011;53304;54.550;18.526;2023-12-22T07:04:07;12.05;;;1.85;;
66487;SDS011;53304;54.550;18.526;2023-12-22T07:06:35;9.05;;;1.95;;
66487;SDS011;53304;54.550;18.526;2023-12-22T07:11:48;6.97;;;1.90;;
66487;SDS011;53304;54.550;18.526;2023-12-22T07:14:20;7.28;;;1.58;;
66487;SDS011;53304;54.550;18.526;2023-12-22T07:16:48;7.57;;;1.55;;
66487;SDS011;53304;54.550;18.526;2023-12-22T07:19:13;6.22;;;1.30;;
66487;SDS011;53304;54.550;18.526;2023-12-22T07:21:41;5.85;;;1.40;;
66487;SDS011;53304;54.550;18.526;2023-12-22T07:24:07;11.05;;;1.95;;
66487;SDS011;53304;54.550;18.526;2023-12-22T07:26:32;7.05;;;1.30;;
66487;SDS011;53304;54.550;18.526;2023-12-22T07:29:00;4.55;;;1.20;;
66487;SDS011;53304;54.550;18.526;2023-12-22T07:31:28;2.72;;;1.15;;
66487;SDS011;53304;54.550;18.526;2023-12-22T07:33:53;3.75;;;1.17;;
66487;SDS011;53304;54.550;18.526;2023-12-22T07:36:24;3.72;;;1.30;;
66487;SDS011;53304;54.550;18.526;2023-12-22T07:38:49;4.10;;;1.20;;
66487;SDS011;53304;54.550;18.526;2023-12-22T07:41:17;5.15;;;1.27;;
66487;SDS011;53304;54.550;18.526;2023-12-22T07:43:42;5.95;;;1.48;;
66487;SDS011;53304;54.550;18.526;2023-12-22T07:46:08;4.20;;;1.10;;
66487;SDS011;53304;54.550;18.526;2023-12-22T07:48:34;4.28;;;1.00;;
66487;SDS011;53304;54.550;18.526;2023-12-22T07:51:02;4.50;;;1.38;;
66487;SDS011;53304;54.550;18.526;2023-12-22T07:53:32;3.25;;;1.10;;
66487;SDS011;53304;54.550;18.526;2023-12-22T07:55:59;2.83;;;0.90;;
66487;SDS011;53304;54.550;18.526;2023-12-22T07:58:25;3.35;;;1.15;;
66487;SDS011;53304;54.550;18.526;2023-12-22T08:00:53;6.75;;;1.50;;
66487;SDS011;53304;54.550;18.526;2023-12-22T08:03:18;5.53;;;1.48;;
66487;SDS011;53304;54.550;18.526;2023-12-22T08:05:47;4.00;;;1.00;;
66487;SDS011;53304;54.550;18.526;2023-12-22T08:08:14;4.28;;;1.40;;
66487;SDS011;53304;54.550;18.526;2023-12-22T08:10:40;3.85;;;0.95;;
66487;SDS011;53304;54.550;18.526;2023-12-22T08:13:08;5.70;;;1.25;;
66487;SDS011;53304;54.550;18.526;2023-12-22T08:15:36;3.80;;;1.20;;
66487;SDS011;53304;54.550;18.526;2023-12-22T08:18:04;3.70;;;1.00;;
66487;SDS011;53304;54.550;18.526;2023-12-22T08:20:29;5.13;;;1.27;;
66487;SDS011;53304;54.550;18.526;2023-12-22T08:22:55;3.28;;;1.00;;
66487;SDS011;53304;54.550;18.526;2023-12-22T08:25:20;3.17;;;0.90;;
66487;SDS011;53304;54.550;18.526;2023-12-22T08:27:46;2.60;;;1.05;;
66487;SDS011;53304;54.550;18.526;2023-12-22T08:30:14;2.67;;;0.88;;
66487;SDS011;53304;54.550;18.526;2023-12-22T08:32:39;3.83;;;1.00;;
66487;SDS011;53304;54.550;18.526;2023-12-22T08:35:07;5.07;;;1.02;;
66487;SDS011;53304;54.550;18.526;2023-12-22T08:37:35;5.25;;;1.00;;
66487;SDS011;53304;54.550;18.526;2023-12-22T08:40:00;3.67;;;1.10;;
66487;SDS011;53304;54.550;18.526;2023-12-22T08:42:26;4.07;;;1.13;;
66487;SDS011;53304;54.550;18.526;2023-12-22T08:44:55;3.97;;;1.33;;
66487;SDS011;53304;54.550;18.526;2023-12-22T08:47:23;3.05;;;1.13;;
66487;SDS011;53304;54.550;18.526;2023-12-22T08:49:48;2.72;;;1.08;;
66487;SDS011;53304;54.550;18.526;2023-12-22T08:52:13;1.92;;;0.80;;
66487;SDS011;53304;54.550;18.526;2023-12-22T08:54:39;3.15;;;1.17;;
66487;SDS011;53304;54.550;18.526;2023-12-22T08:57:04;3.30;;;1.05;;
66487;SDS011;53304;54.550;18.526;2023-12-22T08:59:32;2.63;;;0.90;;
66487;SDS011;53304;54.550;18.526;2023-12-22T09:01:58;3.83;;;1.10;;
66487;SDS011;53304;54.550;18.526;2023-12-22T09:04:23;3.88;;;0.80;;
66487;SDS011;53304;54.550;18.526;2023-12-22T09:06:49;3.63;;;0.85;;
66487;SDS011;53304;54.550;18.526;2023-12-22T09:09:15;2.65;;;0.80;;
66487;SDS011;53304;54.550;18.526;2023-12-22T09:11:40;1.55;;;0.70;;
66487;SDS011;53304;54.550;18.526;2023-12-22T09:14:06;1.70;;;0.70;;
66487;SDS011;53304;54.550;18.526;2023-12-22T09:16:34;1.67;;;0.82;;
66487;SDS011;53304;54.550;18.526;2023-12-22T09:19:03;3.05;;;0.98;;
66487;SDS011;53304;54.550;18.526;2023-12-22T09:21:31;3.92;;;0.98;;
66487;SDS011;53304;54.550;18.526;2023-12-22T09:24:01;1.65;;;0.77;;
66487;SDS011;53304;54.550;18.526;2023-12-22T09:26:32;4.78;;;1.52;;
66487;SDS011;53304;54.550;18.526;2023-12-22T09:29:00;6.85;;;2.13;;
66487;SDS011;53304;54.550;18.526;2023-12-22T09:31:28;5.82;;;1.23;;
66487;SDS011;53304;54.550;18.526;2023-12-22T09:33:54;2.13;;;0.93;;
66487;SDS011;53304;54.550;18.526;2023-12-22T09:36:19;4.53;;;1.25;;
66487;SDS011;53304;54.550;18.526;2023-12-22T09:38:44;3.10;;;1.08;;
66487;SDS011;53304;54.550;18.526;2023-12-22T09:41:10;2.55;;;1.10;;
66487;SDS011;53304;54.550;18.526;2023-12-22T09:43:38;5.95;;;1.27;;
66487;SDS011;53304;54.550;18.526;2023-12-22T09:46:04;3.00;;;1.30;;
66487;SDS011;53304;54.550;18.526;2023-12-22T09:48:30;3.67;;;1.50;;
66487;SDS011;53304;54.550;18.526;2023-12-22T09:50:57;3.60;;;1.48;;
66487;SDS011;53304;54.550;18.526;2023-12-22T09:53:23;5.38;;;1.70;;
66487;SDS011;53304;54.550;18.526;2023-12-22T09:55:51;3.65;;;1.27;;
66487;SDS011;53304;54.550;18.526;2023-12-22T09:58:23;5.22;;;1.60;;
66487;SDS011;53304;54.550;18.526;2023-12-22T10:00:48;12.20;;;2.05;;
66487;SDS011;53304;54.550;18.526;2023-12-22T10:03:17;5.07;;;1.55;;
66487;SDS011;53304;54.550;18.526;2023-12-22T10:05:44;4.72;;;1.77;;
66487;SDS011;53304;54.550;18.526;2023-12-22T10:08:09;5.13;;;1.70;;
66487;SDS011;53304;54.550;18.526;2023-12-22T10:10:38;11.15;;;2.00;;
66487;SDS011;53304;54.550;18.526;2023-12-22T10:13:05;2.97;;;1.27;;
66487;SDS011;53304;54.550;18.526;2023-12-22T10:15:34;3.53;;;1.33;;
66487;SDS011;53304;54.550;18.526;2023-12-22T10:18:04;4.03;;;1.20;;
66487;SDS011;53304;54.550;18.526;2023-12-22T10:20:33;3.75;;;1.25;;
66487;SDS011;53304;54.550;18.526;2023-12-22T10:22:59;3.85;;;1.15;;
66487;SDS011;53304;54.550;18.526;2023-12-22T10:25:27;6.85;;;1.60;;
66487;SDS011;53304;54.550;18.526;2023-12-22T10:27:58;4.70;;;1.38;;
66487;SDS011;53304;54.550;18.526;2023-12-22T10:30:27;12.77;;;1.90;;
66487;SDS011;53304;54.550;18.526;2023-12-22T10:32:57;5.07;;;1.95;;
66487;SDS011;53304;54.550;18.526;2023-12-22T10:35:27;5.95;;;1.70;;
66487;SDS011;53304;54.550;18.526;2023-12-22T10:37:55;4.15;;;1.50;;
66487;SDS011;53304;54.550;18.526;2023-12-22T10:40:21;6.55;;;1.80;;
66487;SDS011;53304;54.550;18.526;2023-12-22T10:42:49;3.25;;;1.60;;
66487;SDS011;53304;54.550;18.526;2023-12-22T10:45:17;11.30;;;1.83;;
66487;SDS011;53304;54.550;18.526;2023-12-22T10:47:43;4.35;;;1.60;;
66487;SDS011;53304;54.550;18.526;2023-12-22T10:50:09;4.32;;;1.73;;
66487;SDS011;53304;54.550;18.526;2023-12-22T10:52:37;5.93;;;2.13;;
66487;SDS011;53304;54.550;18.526;2023-12-22T10:55:02;5.50;;;1.67;;
66487;SDS011;53304;54.550;18.526;2023-12-22T10:57:32;4.22;;;1.30;;
66487;SDS011;53304;54.550;18.526;2023-12-22T11:00:03;4.40;;;1.98;;
66487;SDS011;53304;54.550;18.526;2023-12-22T11:02:32;3.88;;;1.42;;
66487;SDS011;53304;54.550;18.526;2023-12-22T11:05:05;3.20;;;1.30;;
66487;SDS011;53304;54.550;18.526;2023-12-22T11:07:33;4.20;;;1.60;;
66487;SDS011;53304;54.550;18.526;2023-12-22T11:10:07;4.57;;;1.60;;
66487;SDS011;53304;54.550;18.526;2023-12-22T11:12:33;7.75;;;1.98;;
66487;SDS011;53304;54.550;18.526;2023-12-22T11:15:03;3.85;;;1.88;;
66487;SDS011;53304;54.550;18.526;2023-12-22T11:17:32;9.95;;;2.28;;
66487;SDS011;53304;54.550;18.526;2023-12-22T11:22:34;8.27;;;1.77;;
66487;SDS011;53304;54.550;18.526;2023-12-22T11:25:04;10.38;;;2.03;;
66487;SDS011;53304;54.550;18.526;2023-12-22T11:27:32;6.78;;;2.10;;
66487;SDS011;53304;54.550;18.526;2023-12-22T11:29:58;5.68;;;1.65;;
66487;SDS011;53304;54.550;18.526;2023-12-22T11:32:25;5.35;;;2.00;;
66487;SDS011;53304;54.550;18.526;2023-12-22T11:34:54;4.28;;;1.75;;
66487;SDS011;53304;54.550;18.526;2023-12-22T11:37:24;5.38;;;1.63;;
66487;SDS011;53304;54.550;18.526;2023-12-22T11:39:52;3.47;;;1.23;;
66487;SDS011;53304;54.550;18.526;2023-12-22T11:42:24;3.88;;;1.50;;
66487;SDS011;53304;54.550;18.526;2023-12-22T11:44:52;3.22;;;1.40;;
66487;SDS011;53304;54.550;18.526;2023-12-22T11:47:21;4.40;;;1.30;;
66487;SDS011;53304;54.550;18.526;2023-12-22T11:49:47;3.03;;;1.40;;
66487;SDS011;53304;54.550;18.526;2023-12-22T11:52:16;6.25;;;1.45;;
66487;SDS011;53304;54.550;18.526;2023-12-22T11:54:49;2.58;;;1.23;;
66487;SDS011;53304;54.550;18.526;2023-12-22T11:59:57;3.58;;;1.42;;
66487;SDS011;53304;54.550;18.526;2023-12-22T12:02:24;6.15;;;1.63;;
66487;SDS011;53304;54.550;18.526;2023-12-22T12:04:56;5.13;;;1.48;;
66487;SDS011;53304;54.550;18.526;2023-12-22T12:07:41;3.67;;;1.40;;
66487;SDS011;53304;54.550;18.526;2023-12-22T12:10:36;3.67;;;1.40;;
66487;SDS011;53304;54.550;18.526;2023-12-22T12:13:05;5.03;;;1.50;;
66487;SDS011;53304;54.550;18.526;2023-12-22T12:15:31;4.32;;;1.45;;
66487;SDS011;53304;54.550;18.526;2023-12-22T12:18:02;4.70;;;1.33;;
66487;SDS011;53304;54.550;18.526;2023-12-22T12:20:28;4.35;;;1.52;;
66487;SDS011;53304;54.550;18.526;2023-12-22T12:22:54;9.00;;;1.70;;
66487;SDS011;53304;54.550;18.526;2023-12-22T12:25:21;3.45;;;1.40;;
66487;SDS011;53304;54.550;18.526;2023-12-22T12:27:50;3.92;;;1.30;;
66487;SDS011;53304;54.550;18.526;2023-12-22T12:30:18;4.57;;;1.33;;
66487;SDS011;53304;54.550;18.526;2023-12-22T12:32:44;3.92;;;1.10;;
66487;SDS011;53304;54.550;18.526;2023-12-22T12:35:14;3.88;;;1.23;;
66487;SDS011;53304;54.550;18.526;2023-12-22T12:37:43;3.45;;;1.20;;
66487;SDS011;53304;54.550;18.526;2023-12-22T12:40:12;4.32;;;1.08;;
66487;SDS011;53304;54.550;18.526;2023-12-22T12:42:44;7.70;;;1.75;;
66487;SDS011;53304;54.550;18.526;2023-12-22T12:45:09;10.77;;;2.10;;
66487;SDS011;53304;54.550;18.526;2023-12-22T12:47:35;6.97;;;1.80;;
66487;SDS011;53304;54.550;18.526;2023-12-22T12:50:00;3.58;;;1.25;;
66487;SDS011;53304;54.550;18.526;2023-12-22T12:52:29;3.78;;;1.25;;
66487;SDS011;53304;54.550;18.526;2023-12-22T12:54:57;4.80;;;1.25;;
66487;SDS011;53304;54.550;18.526;2023-12-22T12:57:23;3.63;;;1.33;;
66487;SDS011;53304;54.550;18.526;2023-12-22T12:59:49;3.95;;;1.48;;
66487;SDS011;53304;54.550;18.526;2023-12-22T13:02:18;12.88;;;1.98;;
66487;SDS011;53304;54.550;18.526;2023-12-22T13:04:47;4.20;;;1.40;;
66487;SDS011;53304;54.550;18.526;2023-12-22T13:07:13;6.20;;;1.42;;
66487;SDS011;53304;54.550;18.526;2023-12-22T13:09:42;4.82;;;1.50;;
66487;SDS011;53304;54.550;18.526;2023-12-22T13:12:08;5.60;;;1.55;;
66487;SDS011;53304;54.550;18.526;2023-12-22T13:14:34;7.38;;;1.70;;
66487;SDS011;53304;54.550;18.526;2023-12-22T13:17:00;12.63;;;1.65;;
66487;SDS011;53304;54.550;18.526;2023-12-22T13:19:28;4.53;;;1.50;;
66487;SDS011;53304;54.550;18.526;2023-12-22T13:21:58;4.53;;;1.13;;
66487;SDS011;53304;54.550;18.526;2023-12-22T13:24:26;8.23;;;1.60;;
66487;SDS011;53304;54.550;18.526;2023-12-22T13:27:01;10.25;;;1.77;;
66487;SDS011;53304;54.550;18.526;2023-12-22T13:29:41;5.07;;;1.80;;
66487;SDS011;53304;54.550;18.526;2023-12-22T13:32:17;2.60;;;1.30;;
66487;SDS011;53304;54.550;18.526;2023-12-22T13:34:52;3.08;;;1.30;;
66487;SDS011;53304;54.550;18.526;2023-12-22T13:37:18;5.45;;;1.30;;
66487;SDS011;53304;54.550;18.526;2023-12-22T13:39:47;3.92;;;1.48;;
66487;SDS011;53304;54.550;18.526;2023-12-22T13:42:21;4.82;;;1.40;;
66487;SDS011;53304;54.550;18.526;2023-12-22T13:44:47;6.82;;;1.80;;
66487;SDS011;53304;54.550;18.526;2023-12-22T13:47:23;7.13;;;1.83;;
66487;SDS011;53304;54.550;18.526;2023-12-22T13:49:48;4.32;;;1.40;;
66487;SDS011;53304;54.550;18.526;2023-12-22T13:54:57;3.75;;;1.30;;
66487;SDS011;53304;54.550;18.526;2023-12-22T13:57:28;4.13;;;1.42;;
66487;SDS011;53304;54.550;18.526;2023-12-22T13:59:54;3.53;;;1.42;;
66487;SDS011;53304;54.550;18.526;2023-12-22T14:02:24;3.55;;;1.40;;
66487;SDS011;53304;54.550;18.526;2023-12-22T14:04:49;4.43;;;1.38;;
66487;SDS011;53304;54.550;18.526;2023-12-22T14:07:17;3.53;;;1.38;;
66487;SDS011;53304;54.550;18.526;2023-12-22T14:09:51;2.83;;;1.40;;
66487;SDS011;53304;54.550;18.526;2023-12-22T14:12:22;2.80;;;1.40;;
66487;SDS011;53304;54.550;18.526;2023-12-22T14:14:50;3.58;;;1.30;;
66487;SDS011;53304;54.550;18.526;2023-12-22T14:17:18;2.08;;;1.13;;
66487;SDS011;53304;54.550;18.526;2023-12-22T14:19:46;3.35;;;1.30;;
66487;SDS011;53304;54.550;18.526;2023-12-22T14:22:12;3.40;;;1.60;;
66487;SDS011;53304;54.550;18.526;2023-12-22T14:24:40;2.95;;;1.30;;
66487;SDS011;53304;54.550;18.526;2023-12-22T14:27:05;4.22;;;1.35;;
66487;SDS011;53304;54.550;18.526;2023-12-22T14:29:34;2.80;;;1.27;;
66487;SDS011;53304;54.550;18.526;2023-12-22T14:32:01;6.85;;;2.15;;
66487;SDS011;53304;54.550;18.526;2023-12-22T14:34:30;3.58;;;1.25;;
66487;SDS011;53304;54.550;18.526;2023-12-22T14:36:59;3.38;;;1.40;;
66487;SDS011;53304;54.550;18.526;2023-12-22T14:39:28;3.35;;;1.30;;
66487;SDS011;53304;54.550;18.526;2023-12-22T14:41:59;2.72;;;1.23;;
66487;SDS011;53304;54.550;18.526;2023-12-22T14:44:24;3.67;;;1.58;;
66487;SDS011;53304;54.550;18.526;2023-12-22T14:46:52;4.53;;;1.45;;
66487;SDS011;53304;54.550;18.526;2023-12-22T14:49:22;3.22;;;1.40;;
66487;SDS011;53304;54.550;18.526;2023-12-22T14:51:50;2.78;;;1.27;;